sensor_id;sensor_type;location;lat;lon;timestamp;P1;durP1;ratioP1;P2;durP2;ratioP2
29984;SDS011;17387;42.690;23.328;2023-02-22T00:01:30;38.05;;;17.52;;
29984;SDS011;17387;42.690;23.328;2023-02-22T00:03:59;40.80;;;16.90;;
29984;SDS011;17387;42.690;23.328;2023-02-22T00:06:25;40.75;;;17.15;;
29984;SDS011;17387;42.690;23.328;2023-02-22T00:08:50;36.20;;;17.15;;
29984;SDS011;17387;42.690;23.328;2023-02-22T00:11:17;38.92;;;17.40;;
29984;SDS011;17387;42.690;23.328;2023-02-22T00:13:43;38.58;;;17.25;;
29984;SDS011;17387;42.690;23.328;2023-02-22T00:16:12;40.38;;;17.55;;
29984;SDS011;17387;42.690;23.328;2023-02-22T00:18:38;37.70;;;16.65;;
29984;SDS011;17387;42.690;23.328;2023-02-22T00:21:03;39.97;;;17.63;;
29984;SDS011;17387;42.690;23.328;2023-02-22T00:23:29;36.33;;;17.55;;
29984;SDS011;17387;42.690;23.328;2023-02-22T00:25:56;36.40;;;16.25;;
29984;SDS011;17387;42.690;23.328;2023-02-22T00:28:22;27.92;;;14.18;;
29984;SDS011;17387;42.690;23.328;2023-02-22T00:30:50;31.20;;;15.30;;
29984;SDS011;17387;42.690;23.328;2023-02-22T00:33:16;26.90;;;13.95;;
29984;SDS011;17387;42.690;23.328;2023-02-22T00:35:41;30.15;;;13.23;;
29984;SDS011;17387;42.690;23.328;2023-02-22T00:38:10;32.58;;;13.32;;
29984;SDS011;17387;42.690;23.328;2023-02-22T00:40:35;26.13;;;12.73;;
29984;SDS011;17387;42.690;23.328;2023-02-22T00:43:02;27.73;;;13.45;;
29984;SDS011;17387;42.690;23.328;2023-02-22T00:45:28;25.25;;;12.52;;
29984;SDS011;17387;42.690;23.328;2023-02-22T00:47:54;23.65;;;12.50;;
29984;SDS011;17387;42.690;23.328;2023-02-22T00:50:20;26.10;;;12.43;;
29984;SDS011;17387;42.690;23.328;2023-02-22T00:52:46;29.05;;;12.70;;
29984;SDS011;17387;42.690;23.328;2023-02-22T00:55:20;23.08;;;11.77;;
29984;SDS011;17387;42.690;23.328;2023-02-22T00:57:45;26.77;;;12.63;;
29984;SDS011;17387;42.690;23.328;2023-02-22T01:00:15;28.83;;;12.05;;
29984;SDS011;17387;42.690;23.328;2023-02-22T01:02:41;30.92;;;13.20;;
29984;SDS011;17387;42.690;23.328;2023-02-22T01:05:07;25.85;;;12.32;;
29984;SDS011;17387;42.690;23.328;2023-02-22T01:07:33;25.30;;;11.75;;
29984;SDS011;17387;42.690;23.328;2023-02-22T01:09:58;24.33;;;12.50;;
29984;SDS011;17387;42.690;23.328;2023-02-22T01:12:24;26.55;;;12.52;;
29984;SDS011;17387;42.690;23.328;2023-02-22T01:15:03;29.73;;;12.48;;
29984;SDS011;17387;42.690;23.328;2023-02-22T01:17:28;28.15;;;13.10;;
29984;SDS011;17387;42.690;23.328;2023-02-22T01:19:54;29.02;;;12.85;;
29984;SDS011;17387;42.690;23.328;2023-02-22T01:22:20;28.63;;;13.23;;
29984;SDS011;17387;42.690;23.328;2023-02-22T01:24:46;28.00;;;13.93;;
29984;SDS011;17387;42.690;23.328;2023-02-22T01:27:12;29.27;;;13.68;;
29984;SDS011;17387;42.690;23.328;2023-02-22T01:29:37;28.17;;;13.40;;
29984;SDS011;17387;42.690;23.328;2023-02-22T01:32:03;31.73;;;13.70;;
29984;SDS011;17387;42.690;23.328;2023-02-22T01:34:30;27.50;;;13.27;;
29984;SDS011;17387;42.690;23.328;2023-02-22T01:36:57;27.58;;;12.70;;
29984;SDS011;17387;42.690;23.328;2023-02-22T01:39:22;25.10;;;12.32;;
29984;SDS011;17387;42.690;23.328;2023-02-22T01:41:47;28.63;;;13.98;;
29984;SDS011;17387;42.690;23.328;2023-02-22T01:44:16;25.70;;;12.95;;
29984;SDS011;17387;42.690;23.328;2023-02-22T01:46:42;27.90;;;13.05;;
29984;SDS011;17387;42.690;23.328;2023-02-22T01:49:07;31.17;;;13.05;;
29984;SDS011;17387;42.690;23.328;2023-02-22T01:51:53;27.67;;;12.95;;
29984;SDS011;17387;42.690;23.328;2023-02-22T01:54:30;29.75;;;13.40;;
29984;SDS011;17387;42.690;23.328;2023-02-22T01:59:34;31.20;;;12.95;;
29984;SDS011;17387;42.690;23.328;2023-02-22T02:02:00;25.13;;;12.85;;
29984;SDS011;17387;42.690;23.328;2023-02-22T02:04:26;26.85;;;12.77;;
29984;SDS011;17387;42.690;23.328;2023-02-22T02:06:52;23.83;;;12.77;;
29984;SDS011;17387;42.690;23.328;2023-02-22T02:11:45;29.13;;;12.48;;
29984;SDS011;17387;42.690;23.328;2023-02-22T02:14:11;25.63;;;12.48;;
29984;SDS011;17387;42.690;23.328;2023-02-22T02:16:39;30.88;;;13.80;;
29984;SDS011;17387;42.690;23.328;2023-02-22T02:19:06;30.55;;;14.55;;
29984;SDS011;17387;42.690;23.328;2023-02-22T02:21:44;39.00;;;15.95;;
29984;SDS011;17387;42.690;23.328;2023-02-22T02:35:03;33.30;;;13.52;;
29984;SDS011;17387;42.690;23.328;2023-02-22T02:37:43;28.52;;;13.02;;
29984;SDS011;17387;42.690;23.328;2023-02-22T02:42:43;28.67;;;13.13;;
29984;SDS011;17387;42.690;23.328;2023-02-22T02:45:16;26.73;;;12.63;;
29984;SDS011;17387;42.690;23.328;2023-02-22T02:47:46;26.23;;;12.68;;
29984;SDS011;17387;42.690;23.328;2023-02-22T02:50:17;25.25;;;13.60;;
29984;SDS011;17387;42.690;23.328;2023-02-22T02:52:44;32.50;;;14.05;;
29984;SDS011;17387;42.690;23.328;2023-02-22T02:55:10;30.55;;;14.27;;
29984;SDS011;17387;42.690;23.328;2023-02-22T02:57:36;28.60;;;14.13;;
29984;SDS011;17387;42.690;23.328;2023-02-22T03:00:03;30.33;;;14.15;;
29984;SDS011;17387;42.690;23.328;2023-02-22T03:10:49;31.15;;;14.23;;
29984;SDS011;17387;42.690;23.328;2023-02-22T03:13:27;26.50;;;13.52;;
29984;SDS011;17387;42.690;23.328;2023-02-22T03:21:09;29.50;;;15.18;;
29984;SDS011;17387;42.690;23.328;2023-02-22T03:23:38;31.15;;;14.20;;
29984;SDS011;17387;42.690;23.328;2023-02-22T03:26:13;30.50;;;13.60;;
29984;SDS011;17387;42.690;23.328;2023-02-22T03:28:39;34.63;;;14.70;;
29984;SDS011;17387;42.690;23.328;2023-02-22T03:31:11;28.42;;;13.82;;
29984;SDS011;17387;42.690;23.328;2023-02-22T03:33:41;30.08;;;14.20;;
29984;SDS011;17387;42.690;23.328;2023-02-22T03:36:14;30.73;;;13.57;;
29984;SDS011;17387;42.690;23.328;2023-02-22T03:38:40;23.55;;;12.50;;
29984;SDS011;17387;42.690;23.328;2023-02-22T03:41:06;29.58;;;13.77;;
29984;SDS011;17387;42.690;23.328;2023-02-22T03:43:37;25.60;;;12.93;;
29984;SDS011;17387;42.690;23.328;2023-02-22T03:46:05;31.15;;;14.45;;
29984;SDS011;17387;42.690;23.328;2023-02-22T03:51:03;29.42;;;13.52;;
29984;SDS011;17387;42.690;23.328;2023-02-22T03:53:30;25.30;;;13.40;;
29984;SDS011;17387;42.690;23.328;2023-02-22T03:55:56;27.27;;;13.23;;
29984;SDS011;17387;42.690;23.328;2023-02-22T03:58:24;26.42;;;13.65;;
29984;SDS011;17387;42.690;23.328;2023-02-22T04:00:51;30.00;;;13.68;;
29984;SDS011;17387;42.690;23.328;2023-02-22T04:03:18;33.15;;;14.38;;
29984;SDS011;17387;42.690;23.328;2023-02-22T04:05:44;29.88;;;15.05;;
29984;SDS011;17387;42.690;23.328;2023-02-22T04:08:12;36.28;;;15.55;;
29984;SDS011;17387;42.690;23.328;2023-02-22T04:10:37;28.70;;;13.90;;
29984;SDS011;17387;42.690;23.328;2023-02-22T04:13:03;30.38;;;14.52;;
29984;SDS011;17387;42.690;23.328;2023-02-22T04:15:28;29.52;;;14.25;;
29984;SDS011;17387;42.690;23.328;2023-02-22T04:17:53;31.38;;;14.10;;
29984;SDS011;17387;42.690;23.328;2023-02-22T04:20:19;27.52;;;13.88;;
29984;SDS011;17387;42.690;23.328;2023-02-22T04:22:44;34.42;;;14.27;;
29984;SDS011;17387;42.690;23.328;2023-02-22T04:25:10;29.15;;;14.13;;
29984;SDS011;17387;42.690;23.328;2023-02-22T04:27:35;29.38;;;14.60;;
29984;SDS011;17387;42.690;23.328;2023-02-22T04:30:01;30.48;;;14.05;;
29984;SDS011;17387;42.690;23.328;2023-02-22T04:32:26;34.38;;;15.43;;
29984;SDS011;17387;42.690;23.328;2023-02-22T04:34:55;35.00;;;14.13;;
29984;SDS011;17387;42.690;23.328;2023-02-22T04:37:20;31.20;;;14.20;;
29984;SDS011;17387;42.690;23.328;2023-02-22T04:39:45;31.30;;;14.80;;
29984;SDS011;17387;42.690;23.328;2023-02-22T04:42:11;35.45;;;15.93;;
29984;SDS011;17387;42.690;23.328;2023-02-22T04:44:36;39.85;;;17.60;;
29984;SDS011;17387;42.690;23.328;2023-02-22T04:47:01;33.10;;;16.58;;
29984;SDS011;17387;42.690;23.328;2023-02-22T04:49:27;33.70;;;16.10;;
29984;SDS011;17387;42.690;23.328;2023-02-22T04:51:52;37.55;;;16.73;;
29984;SDS011;17387;42.690;23.328;2023-02-22T04:54:17;36.40;;;15.13;;
29984;SDS011;17387;42.690;23.328;2023-02-22T04:56:43;30.35;;;15.50;;
29984;SDS011;17387;42.690;23.328;2023-02-22T04:59:08;34.30;;;15.85;;
29984;SDS011;17387;42.690;23.328;2023-02-22T05:01:34;36.42;;;15.93;;
29984;SDS011;17387;42.690;23.328;2023-02-22T05:04:06;35.30;;;15.77;;
29984;SDS011;17387;42.690;23.328;2023-02-22T05:06:32;37.25;;;15.13;;
29984;SDS011;17387;42.690;23.328;2023-02-22T05:08:57;35.47;;;14.20;;
29984;SDS011;17387;42.690;23.328;2023-02-22T05:11:22;32.20;;;14.85;;
29984;SDS011;17387;42.690;23.328;2023-02-22T05:13:48;35.47;;;14.15;;
29984;SDS011;17387;42.690;23.328;2023-02-22T05:16:13;34.50;;;15.60;;
29984;SDS011;17387;42.690;23.328;2023-02-22T05:18:40;32.05;;;14.38;;
29984;SDS011;17387;42.690;23.328;2023-02-22T05:21:06;34.10;;;14.27;;
29984;SDS011;17387;42.690;23.328;2023-02-22T05:23:33;42.80;;;15.70;;
29984;SDS011;17387;42.690;23.328;2023-02-22T05:25:58;34.97;;;14.82;;
29984;SDS011;17387;42.690;23.328;2023-02-22T05:28:23;44.38;;;15.52;;
29984;SDS011;17387;42.690;23.328;2023-02-22T05:30:49;35.38;;;15.02;;
29984;SDS011;17387;42.690;23.328;2023-02-22T05:33:14;30.55;;;14.18;;
29984;SDS011;17387;42.690;23.328;2023-02-22T05:35:40;35.22;;;13.70;;
29984;SDS011;17387;42.690;23.328;2023-02-22T05:38:06;34.00;;;14.32;;
29984;SDS011;17387;42.690;23.328;2023-02-22T05:40:31;34.15;;;14.00;;
29984;SDS011;17387;42.690;23.328;2023-02-22T05:42:57;32.85;;;14.07;;
29984;SDS011;17387;42.690;23.328;2023-02-22T05:45:23;31.50;;;12.80;;
29984;SDS011;17387;42.690;23.328;2023-02-22T05:47:49;30.63;;;12.57;;
29984;SDS011;17387;42.690;23.328;2023-02-22T05:50:15;30.95;;;13.82;;
29984;SDS011;17387;42.690;23.328;2023-02-22T05:52:40;38.33;;;15.27;;
29984;SDS011;17387;42.690;23.328;2023-02-22T05:55:06;31.90;;;14.23;;
29984;SDS011;17387;42.690;23.328;2023-02-22T05:57:32;30.88;;;14.70;;
29984;SDS011;17387;42.690;23.328;2023-02-22T05:59:57;41.33;;;15.15;;
29984;SDS011;17387;42.690;23.328;2023-02-22T06:02:22;34.08;;;14.75;;
29984;SDS011;17387;42.690;23.328;2023-02-22T06:04:48;33.72;;;13.73;;
29984;SDS011;17387;42.690;23.328;2023-02-22T06:07:13;28.00;;;14.32;;
29984;SDS011;17387;42.690;23.328;2023-02-22T06:09:39;40.75;;;15.93;;
29984;SDS011;17387;42.690;23.328;2023-02-22T06:14:56;38.42;;;15.25;;
29984;SDS011;17387;42.690;23.328;2023-02-22T06:17:21;36.20;;;15.43;;
29984;SDS011;17387;42.690;23.328;2023-02-22T06:19:46;35.58;;;15.15;;
29984;SDS011;17387;42.690;23.328;2023-02-22T06:22:15;36.78;;;15.48;;
29984;SDS011;17387;42.690;23.328;2023-02-22T06:24:41;37.30;;;16.75;;
29984;SDS011;17387;42.690;23.328;2023-02-22T06:27:06;30.25;;;14.82;;
29984;SDS011;17387;42.690;23.328;2023-02-22T06:29:32;40.28;;;15.55;;
29984;SDS011;17387;42.690;23.328;2023-02-22T06:31:57;35.22;;;15.32;;
29984;SDS011;17387;42.690;23.328;2023-02-22T06:34:22;43.00;;;15.77;;
29984;SDS011;17387;42.690;23.328;2023-02-22T06:36:48;33.90;;;14.20;;
29984;SDS011;17387;42.690;23.328;2023-02-22T06:39:14;33.20;;;12.52;;
29984;SDS011;17387;42.690;23.328;2023-02-22T06:41:40;30.95;;;13.75;;
29984;SDS011;17387;42.690;23.328;2023-02-22T06:44:05;31.52;;;13.95;;
29984;SDS011;17387;42.690;23.328;2023-02-22T06:46:31;30.08;;;13.63;;
29984;SDS011;17387;42.690;23.328;2023-02-22T06:48:56;38.63;;;14.73;;
29984;SDS011;17387;42.690;23.328;2023-02-22T06:51:23;34.05;;;15.40;;
29984;SDS011;17387;42.690;23.328;2023-02-22T06:53:49;35.30;;;16.02;;
29984;SDS011;17387;42.690;23.328;2023-02-22T06:56:14;42.88;;;16.88;;
29984;SDS011;17387;42.690;23.328;2023-02-22T06:58:39;42.00;;;16.92;;
29984;SDS011;17387;42.690;23.328;2023-02-22T07:01:05;35.47;;;15.45;;
29984;SDS011;17387;42.690;23.328;2023-02-22T07:03:32;38.92;;;15.82;;
29984;SDS011;17387;42.690;23.328;2023-02-22T07:05:57;44.55;;;17.67;;
29984;SDS011;17387;42.690;23.328;2023-02-22T07:08:23;44.80;;;18.15;;
29984;SDS011;17387;42.690;23.328;2023-02-22T07:10:48;35.03;;;16.38;;
29984;SDS011;17387;42.690;23.328;2023-02-22T07:13:14;33.00;;;13.75;;
29984;SDS011;17387;42.690;23.328;2023-02-22T07:15:39;50.42;;;19.00;;
29984;SDS011;17387;42.690;23.328;2023-02-22T07:18:05;46.35;;;17.50;;
29984;SDS011;17387;42.690;23.328;2023-02-22T07:20:31;50.70;;;21.10;;
29984;SDS011;17387;42.690;23.328;2023-02-22T07:22:57;37.97;;;17.17;;
29984;SDS011;17387;42.690;23.328;2023-02-22T07:25:22;36.72;;;16.70;;
29984;SDS011;17387;42.690;23.328;2023-02-22T07:27:47;36.30;;;18.65;;
29984;SDS011;17387;42.690;23.328;2023-02-22T07:35:29;34.38;;;19.00;;
29984;SDS011;17387;42.690;23.328;2023-02-22T07:37:55;47.10;;;19.17;;
29984;SDS011;17387;42.690;23.328;2023-02-22T07:40:21;37.90;;;16.58;;
29984;SDS011;17387;42.690;23.328;2023-02-22T07:43:00;40.05;;;17.35;;
29984;SDS011;17387;42.690;23.328;2023-02-22T07:45:26;36.17;;;16.63;;
29984;SDS011;17387;42.690;23.328;2023-02-22T07:47:52;33.70;;;14.38;;
29984;SDS011;17387;42.690;23.328;2023-02-22T07:50:18;35.63;;;15.23;;
29984;SDS011;17387;42.690;23.328;2023-02-22T07:52:44;31.60;;;15.52;;
29984;SDS011;17387;42.690;23.328;2023-02-22T07:55:10;34.08;;;15.02;;
29984;SDS011;17387;42.690;23.328;2023-02-22T07:57:36;30.40;;;14.10;;
29984;SDS011;17387;42.690;23.328;2023-02-22T08:00:01;35.50;;;15.50;;
29984;SDS011;17387;42.690;23.328;2023-02-22T08:02:26;30.40;;;15.38;;
29984;SDS011;17387;42.690;23.328;2023-02-22T08:04:51;30.67;;;15.05;;
29984;SDS011;17387;42.690;23.328;2023-02-22T08:07:17;34.15;;;15.43;;
29984;SDS011;17387;42.690;23.328;2023-02-22T08:09:42;37.55;;;17.50;;
29984;SDS011;17387;42.690;23.328;2023-02-22T08:12:07;50.20;;;24.15;;
29984;SDS011;17387;42.690;23.328;2023-02-22T08:14:32;49.58;;;22.80;;
29984;SDS011;17387;42.690;23.328;2023-02-22T08:16:58;50.20;;;25.40;;
29984;SDS011;17387;42.690;23.328;2023-02-22T08:19:23;52.63;;;26.00;;
29984;SDS011;17387;42.690;23.328;2023-02-22T08:21:51;50.38;;;26.02;;
29984;SDS011;17387;42.690;23.328;2023-02-22T08:24:16;52.03;;;22.67;;
29984;SDS011;17387;42.690;23.328;2023-02-22T08:26:45;41.65;;;19.98;;
29984;SDS011;17387;42.690;23.328;2023-02-22T08:29:10;38.50;;;18.95;;
29984;SDS011;17387;42.690;23.328;2023-02-22T08:31:35;44.38;;;20.00;;
29984;SDS011;17387;42.690;23.328;2023-02-22T08:34:01;42.03;;;20.58;;
29984;SDS011;17387;42.690;23.328;2023-02-22T08:36:26;37.10;;;18.60;;
29984;SDS011;17387;42.690;23.328;2023-02-22T08:38:53;40.88;;;19.83;;
29984;SDS011;17387;42.690;23.328;2023-02-22T08:41:18;40.53;;;21.02;;
29984;SDS011;17387;42.690;23.328;2023-02-22T08:43:44;43.10;;;21.33;;
29984;SDS011;17387;42.690;23.328;2023-02-22T08:46:09;46.55;;;21.23;;
29984;SDS011;17387;42.690;23.328;2023-02-22T08:48:34;45.10;;;21.27;;
29984;SDS011;17387;42.690;23.328;2023-02-22T08:50:59;43.47;;;19.40;;
29984;SDS011;17387;42.690;23.328;2023-02-22T08:53:25;32.92;;;17.35;;
29984;SDS011;17387;42.690;23.328;2023-02-22T08:55:51;33.67;;;15.10;;
29984;SDS011;17387;42.690;23.328;2023-02-22T08:58:19;14.55;;;6.63;;
29984;SDS011;17387;42.690;23.328;2023-02-22T09:00:44;14.77;;;7.35;;
29984;SDS011;17387;42.690;23.328;2023-02-22T09:03:10;15.85;;;7.50;;
29984;SDS011;17387;42.690;23.328;2023-02-22T09:05:37;20.52;;;8.93;;
29984;SDS011;17387;42.690;23.328;2023-02-22T09:08:02;20.35;;;8.85;;
29984;SDS011;17387;42.690;23.328;2023-02-22T09:10:29;15.95;;;8.15;;
29984;SDS011;17387;42.690;23.328;2023-02-22T09:12:55;20.38;;;9.40;;
29984;SDS011;17387;42.690;23.328;2023-02-22T09:15:21;19.52;;;8.98;;
29984;SDS011;17387;42.690;23.328;2023-02-22T09:17:46;15.15;;;7.13;;
29984;SDS011;17387;42.690;23.328;2023-02-22T09:20:12;19.10;;;8.68;;
29984;SDS011;17387;42.690;23.328;2023-02-22T09:22:38;13.90;;;7.75;;
29984;SDS011;17387;42.690;23.328;2023-02-22T09:25:03;16.23;;;8.02;;
29984;SDS011;17387;42.690;23.328;2023-02-22T09:27:29;15.93;;;6.68;;
29984;SDS011;17387;42.690;23.328;2023-02-22T09:29:54;12.05;;;5.95;;
29984;SDS011;17387;42.690;23.328;2023-02-22T09:32:20;12.05;;;5.82;;
29984;SDS011;17387;42.690;23.328;2023-02-22T09:34:46;9.82;;;6.05;;
29984;SDS011;17387;42.690;23.328;2023-02-22T09:37:11;13.60;;;6.22;;
29984;SDS011;17387;42.690;23.328;2023-02-22T09:39:37;12.55;;;6.72;;
29984;SDS011;17387;42.690;23.328;2023-02-22T09:47:00;9.15;;;4.75;;
29984;SDS011;17387;42.690;23.328;2023-02-22T09:49:42;11.52;;;4.47;;
29984;SDS011;17387;42.690;23.328;2023-02-22T09:52:31;10.07;;;4.68;;
29984;SDS011;17387;42.690;23.328;2023-02-22T09:57:41;10.57;;;4.78;;
29984;SDS011;17387;42.690;23.328;2023-02-22T10:02:38;7.97;;;4.78;;
29984;SDS011;17387;42.690;23.328;2023-02-22T10:05:12;9.13;;;5.03;;
29984;SDS011;17387;42.690;23.328;2023-02-22T10:07:45;8.02;;;4.13;;
29984;SDS011;17387;42.690;23.328;2023-02-22T10:10:14;9.85;;;4.63;;
29984;SDS011;17387;42.690;23.328;2023-02-22T10:12:43;9.20;;;5.40;;
29984;SDS011;17387;42.690;23.328;2023-02-22T10:20:15;10.02;;;4.20;;
29984;SDS011;17387;42.690;23.328;2023-02-22T10:23:03;9.85;;;4.60;;
29984;SDS011;17387;42.690;23.328;2023-02-22T10:25:34;10.38;;;4.28;;
29984;SDS011;17387;42.690;23.328;2023-02-22T10:28:05;7.78;;;3.90;;
29984;SDS011;17387;42.690;23.328;2023-02-22T10:33:23;8.13;;;4.80;;
29984;SDS011;17387;42.690;23.328;2023-02-22T10:35:52;7.63;;;5.00;;
29984;SDS011;17387;42.690;23.328;2023-02-22T10:38:22;9.13;;;4.80;;
29984;SDS011;17387;42.690;23.328;2023-02-22T10:40:53;8.32;;;4.43;;
29984;SDS011;17387;42.690;23.328;2023-02-22T10:43:19;7.90;;;4.07;;
29984;SDS011;17387;42.690;23.328;2023-02-22T10:45:44;8.30;;;4.80;;
29984;SDS011;17387;42.690;23.328;2023-02-22T10:48:10;7.13;;;4.47;;
29984;SDS011;17387;42.690;23.328;2023-02-22T10:50:38;9.35;;;4.57;;
29984;SDS011;17387;42.690;23.328;2023-02-22T10:53:05;10.32;;;5.35;;
29984;SDS011;17387;42.690;23.328;2023-02-22T10:55:30;9.40;;;5.43;;
29984;SDS011;17387;42.690;23.328;2023-02-22T10:58:01;12.48;;;4.95;;
29984;SDS011;17387;42.690;23.328;2023-02-22T11:00:30;8.95;;;4.28;;
29984;SDS011;17387;42.690;23.328;2023-02-22T11:02:56;7.55;;;4.40;;
29984;SDS011;17387;42.690;23.328;2023-02-22T11:05:38;13.90;;;5.72;;
29984;SDS011;17387;42.690;23.328;2023-02-22T11:10:39;11.45;;;4.68;;
29984;SDS011;17387;42.690;23.328;2023-02-22T11:13:38;8.63;;;4.53;;
29984;SDS011;17387;42.690;23.328;2023-02-22T11:15:58;24.30;;;10.93;;
29984;SDS011;17387;42.690;23.328;2023-02-22T11:18:25;12.25;;;6.88;;
29984;SDS011;17387;42.690;23.328;2023-02-22T11:24:02;8.90;;;4.38;;
29984;SDS011;17387;42.690;23.328;2023-02-22T11:26:39;8.52;;;4.38;;
29984;SDS011;17387;42.690;23.328;2023-02-22T11:29:08;7.70;;;4.30;;
29984;SDS011;17387;42.690;23.328;2023-02-22T11:31:39;6.57;;;3.63;;
29984;SDS011;17387;42.690;23.328;2023-02-22T11:36:57;8.75;;;3.33;;
29984;SDS011;17387;42.690;23.328;2023-02-22T11:39:39;7.13;;;3.90;;
29984;SDS011;17387;42.690;23.328;2023-02-22T11:42:20;5.53;;;3.35;;
29984;SDS011;17387;42.690;23.328;2023-02-22T11:44:52;7.18;;;3.97;;
29984;SDS011;17387;42.690;23.328;2023-02-22T11:47:31;8.40;;;3.28;;
29984;SDS011;17387;42.690;23.328;2023-02-22T11:49:56;10.25;;;3.70;;
29984;SDS011;17387;42.690;23.328;2023-02-22T11:52:30;6.72;;;3.38;;
29984;SDS011;17387;42.690;23.328;2023-02-22T12:03:01;5.45;;;3.10;;
29984;SDS011;17387;42.690;23.328;2023-02-22T12:13:04;6.25;;;3.30;;
29984;SDS011;17387;42.690;23.328;2023-02-22T12:18:01;3.25;;;2.70;;
29984;SDS011;17387;42.690;23.328;2023-02-22T12:20:35;5.25;;;2.70;;
29984;SDS011;17387;42.690;23.328;2023-02-22T12:23:05;6.43;;;3.20;;
29984;SDS011;17387;42.690;23.328;2023-02-22T12:25:51;7.38;;;3.22;;
29984;SDS011;17387;42.690;23.328;2023-02-22T12:30:51;5.13;;;2.63;;
29984;SDS011;17387;42.690;23.328;2023-02-22T12:33:25;7.03;;;2.78;;
29984;SDS011;17387;42.690;23.328;2023-02-22T12:35:52;4.03;;;2.42;;
29984;SDS011;17387;42.690;23.328;2023-02-22T12:40:54;4.88;;;2.80;;
29984;SDS011;17387;42.690;23.328;2023-02-22T12:43:27;7.97;;;2.72;;
29984;SDS011;17387;42.690;23.328;2023-02-22T12:51:30;5.10;;;2.75;;
29984;SDS011;17387;42.690;23.328;2023-02-22T12:54:22;6.25;;;3.15;;
29984;SDS011;17387;42.690;23.328;2023-02-22T12:56:58;7.05;;;3.38;;
29984;SDS011;17387;42.690;23.328;2023-02-22T12:59:28;6.10;;;2.67;;
29984;SDS011;17387;42.690;23.328;2023-02-22T13:02:11;6.53;;;3.40;;
29984;SDS011;17387;42.690;23.328;2023-02-22T13:04:38;7.95;;;3.83;;
29984;SDS011;17387;42.690;23.328;2023-02-22T13:15:23;4.20;;;2.65;;
29984;SDS011;17387;42.690;23.328;2023-02-22T13:20:37;5.55;;;3.50;;
29984;SDS011;17387;42.690;23.328;2023-02-22T13:25:43;6.45;;;2.90;;
29984;SDS011;17387;42.690;23.328;2023-02-22T13:30:56;6.53;;;3.65;;
29984;SDS011;17387;42.690;23.328;2023-02-22T13:38:26;4.28;;;3.13;;
29984;SDS011;17387;42.690;23.328;2023-02-22T13:51:10;6.72;;;3.65;;
29984;SDS011;17387;42.690;23.328;2023-02-22T13:53:57;7.45;;;4.00;;
29984;SDS011;17387;42.690;23.328;2023-02-22T13:56:25;7.03;;;3.92;;
29984;SDS011;17387;42.690;23.328;2023-02-22T13:58:54;4.95;;;3.00;;
29984;SDS011;17387;42.690;23.328;2023-02-22T14:01:37;5.03;;;2.80;;
29984;SDS011;17387;42.690;23.328;2023-02-22T14:06:47;4.90;;;3.90;;
29984;SDS011;17387;42.690;23.328;2023-02-22T14:09:13;6.55;;;3.90;;
29984;SDS011;17387;42.690;23.328;2023-02-22T14:11:43;8.13;;;4.43;;
29984;SDS011;17387;42.690;23.328;2023-02-22T14:14:09;4.75;;;3.33;;
29984;SDS011;17387;42.690;23.328;2023-02-22T14:16:35;11.27;;;4.28;;
29984;SDS011;17387;42.690;23.328;2023-02-22T14:21:32;8.02;;;3.20;;
29984;SDS011;17387;42.690;23.328;2023-02-22T14:24:08;5.90;;;3.85;;
29984;SDS011;17387;42.690;23.328;2023-02-22T14:26:52;5.80;;;3.72;;
29984;SDS011;17387;42.690;23.328;2023-02-22T14:29:18;8.17;;;4.03;;
29984;SDS011;17387;42.690;23.328;2023-02-22T14:41:59;7.35;;;3.85;;
29984;SDS011;17387;42.690;23.328;2023-02-22T14:44:29;5.45;;;3.97;;
29984;SDS011;17387;42.690;23.328;2023-02-22T14:46:57;8.15;;;4.80;;
29984;SDS011;17387;42.690;23.328;2023-02-22T14:49:26;4.35;;;3.22;;
29984;SDS011;17387;42.690;23.328;2023-02-22T14:51:58;5.00;;;3.53;;
29984;SDS011;17387;42.690;23.328;2023-02-22T14:54:29;6.35;;;4.18;;
29984;SDS011;17387;42.690;23.328;2023-02-22T14:59:42;5.20;;;3.65;;
29984;SDS011;17387;42.690;23.328;2023-02-22T15:02:10;8.18;;;4.43;;
29984;SDS011;17387;42.690;23.328;2023-02-22T15:04:36;6.10;;;3.78;;
29984;SDS011;17387;42.690;23.328;2023-02-22T15:07:07;6.03;;;3.90;;
29984;SDS011;17387;42.690;23.328;2023-02-22T15:14:27;8.35;;;5.70;;
29984;SDS011;17387;42.690;23.328;2023-02-22T15:16:54;6.68;;;4.57;;
29984;SDS011;17387;42.690;23.328;2023-02-22T15:19:24;13.60;;;5.30;;
29984;SDS011;17387;42.690;23.328;2023-02-22T15:21:51;8.47;;;4.80;;
29984;SDS011;17387;42.690;23.328;2023-02-22T15:24:22;8.93;;;5.00;;
29984;SDS011;17387;42.690;23.328;2023-02-22T15:26:48;10.70;;;4.95;;
29984;SDS011;17387;42.690;23.328;2023-02-22T15:29:15;12.95;;;6.38;;
29984;SDS011;17387;42.690;23.328;2023-02-22T15:31:42;10.07;;;6.13;;
29984;SDS011;17387;42.690;23.328;2023-02-22T15:36:41;9.27;;;5.65;;
29984;SDS011;17387;42.690;23.328;2023-02-22T15:39:26;7.70;;;5.53;;
29984;SDS011;17387;42.690;23.328;2023-02-22T15:42:17;9.90;;;5.93;;
29984;SDS011;17387;42.690;23.328;2023-02-22T15:45:12;13.18;;;6.70;;
29984;SDS011;17387;42.690;23.328;2023-02-22T15:47:45;10.50;;;6.25;;
29984;SDS011;17387;42.690;23.328;2023-02-22T15:52:59;9.40;;;6.05;;
29984;SDS011;17387;42.690;23.328;2023-02-22T15:55:31;9.60;;;5.85;;
29984;SDS011;17387;42.690;23.328;2023-02-22T16:00:49;15.00;;;7.22;;
29984;SDS011;17387;42.690;23.328;2023-02-22T16:03:18;11.32;;;6.50;;
29984;SDS011;17387;42.690;23.328;2023-02-22T16:05:51;14.43;;;6.72;;
29984;SDS011;17387;42.690;23.328;2023-02-22T16:08:32;11.88;;;6.47;;
29984;SDS011;17387;42.690;23.328;2023-02-22T16:13:49;14.40;;;7.85;;
29984;SDS011;17387;42.690;23.328;2023-02-22T16:18:52;14.48;;;7.82;;
29984;SDS011;17387;42.690;23.328;2023-02-22T16:21:48;15.55;;;7.53;;
29984;SDS011;17387;42.690;23.328;2023-02-22T16:24:25;12.40;;;7.30;;
29984;SDS011;17387;42.690;23.328;2023-02-22T16:29:32;10.57;;;7.18;;
29984;SDS011;17387;42.690;23.328;2023-02-22T16:31:57;18.48;;;8.40;;
29984;SDS011;17387;42.690;23.328;2023-02-22T16:34:23;14.30;;;7.68;;
29984;SDS011;17387;42.690;23.328;2023-02-22T16:36:51;16.20;;;9.10;;
29984;SDS011;17387;42.690;23.328;2023-02-22T16:39:23;14.10;;;8.00;;
29984;SDS011;17387;42.690;23.328;2023-02-22T16:41:51;13.07;;;8.45;;
29984;SDS011;17387;42.690;23.328;2023-02-22T16:44:17;15.32;;;8.63;;
29984;SDS011;17387;42.690;23.328;2023-02-22T16:46:45;16.77;;;9.68;;
29984;SDS011;17387;42.690;23.328;2023-02-22T16:49:11;15.93;;;9.13;;
29984;SDS011;17387;42.690;23.328;2023-02-22T16:54:29;17.52;;;10.30;;
29984;SDS011;17387;42.690;23.328;2023-02-22T16:57:01;17.38;;;9.90;;
29984;SDS011;17387;42.690;23.328;2023-02-22T16:59:28;16.90;;;9.30;;
29984;SDS011;17387;42.690;23.328;2023-02-22T17:01:55;22.58;;;10.52;;
29984;SDS011;17387;42.690;23.328;2023-02-22T17:04:23;26.27;;;12.20;;
29984;SDS011;17387;42.690;23.328;2023-02-22T17:06:54;25.23;;;12.13;;
29984;SDS011;17387;42.690;23.328;2023-02-22T17:09:22;28.17;;;15.18;;
29984;SDS011;17387;42.690;23.328;2023-02-22T17:11:48;26.48;;;14.60;;
29984;SDS011;17387;42.690;23.328;2023-02-22T17:14:15;26.77;;;14.43;;